createdAt,value
2022-12-19T00:00:38.526Z,13.47
2022-12-19T00:03:06.843Z,12.60
2022-12-19T00:05:37.927Z,14.07
2022-12-19T00:08:17.179Z,11.83
2022-12-19T00:10:56.408Z,12.53
2022-12-19T00:13:25.060Z,12.73
2022-12-19T00:15:53.538Z,14.37
2022-12-19T00:18:22.042Z,13.03
2022-12-19T00:20:58.091Z,12.67
2022-12-19T00:23:27.120Z,12.27
2022-12-19T00:25:56.987Z,11.97
2022-12-19T00:28:25.230Z,12.77
2022-12-19T00:30:54.014Z,13.70
2022-12-19T00:33:24.878Z,11.80
2022-12-19T00:35:58.717Z,13.07
2022-12-19T00:38:27.098Z,12.07
2022-12-19T00:40:56.720Z,13.23
2022-12-19T00:43:24.970Z,11.83
2022-12-19T00:45:53.254Z,12.10
2022-12-19T00:48:21.516Z,12.03
2022-12-19T00:50:49.739Z,11.97
2022-12-19T00:53:17.989Z,11.30
2022-12-19T00:56:02.981Z,11.50
2022-12-19T00:58:35.168Z,11.20
2022-12-19T01:01:07.576Z,10.83
2022-12-19T01:03:37.289Z,10.60
2022-12-19T01:06:06.894Z,11.57
2022-12-19T01:08:35.340Z,11.83
2022-12-19T01:11:06.043Z,10.83
2022-12-19T01:13:38.571Z,11.23
2022-12-19T01:16:13.318Z,10.13
2022-12-19T01:18:41.757Z,10.30
2022-12-19T01:21:12.039Z,9.70
2022-12-19T01:23:40.284Z,10.70
2022-12-19T01:26:11.360Z,9.63
2022-12-19T01:28:40.860Z,9.97
2022-12-19T01:31:09.031Z,9.57
2022-12-19T01:33:40.295Z,9.80
2022-12-19T01:36:11.187Z,9.67
2022-12-19T01:38:39.387Z,9.63
2022-12-19T01:41:08.497Z,8.43
2022-12-19T01:43:57.041Z,9.00
2022-12-19T01:46:28.576Z,8.10
2022-12-19T01:48:58.187Z,8.23
2022-12-19T01:51:30.511Z,9.10
2022-12-19T01:54:02.056Z,9.23
2022-12-19T01:56:36.009Z,9.20
2022-12-19T01:59:09.153Z,8.83
2022-12-19T02:01:51.187Z,9.67
2022-12-19T02:04:24.734Z,9.27
2022-12-19T02:06:55.407Z,10.13
2022-12-19T02:09:26.075Z,10.83
2022-12-19T02:11:55.358Z,9.97
2022-12-19T02:14:26.991Z,10.33
2022-12-19T02:17:02.743Z,9.70
2022-12-19T02:20:16.842Z,9.87
2022-12-19T02:22:59.707Z,10.43
2022-12-19T02:26:02.714Z,10.07
2022-12-19T02:29:02.814Z,10.53
2022-12-19T02:31:37.759Z,10.20
2022-12-19T02:34:14.747Z,11.87
2022-12-19T02:36:54.226Z,10.57
2022-12-19T02:39:30.562Z,9.40
2022-12-19T02:42:05.039Z,10.43
2022-12-19T02:44:40.820Z,9.63
2022-12-19T02:47:11.304Z,10.30
2022-12-19T02:49:40.583Z,10.53
2022-12-19T02:52:13.682Z,9.73
2022-12-19T02:54:42.300Z,11.30
2022-12-19T02:57:22.122Z,10.43
2022-12-19T03:00:03.126Z,9.83
2022-12-19T03:02:42.359Z,11.13
2022-12-19T03:05:20.936Z,10.73
2022-12-19T03:07:56.677Z,10.10
2022-12-19T03:10:34.462Z,9.57
2022-12-19T03:13:05.954Z,9.40
2022-12-19T03:15:35.301Z,12.60
2022-12-19T03:18:05.816Z,11.17
2022-12-19T03:20:43.660Z,10.87
2022-12-19T03:23:12.678Z,11.60
2022-12-19T03:25:43.993Z,9.60
2022-12-19T03:28:15.068Z,9.90
2022-12-19T03:30:45.544Z,10.07
2022-12-19T03:33:18.498Z,9.47
2022-12-19T03:35:48.713Z,10.27
2022-12-19T03:38:19.358Z,9.57
2022-12-19T03:40:49.140Z,9.67
2022-12-19T03:43:17.816Z,10.77
2022-12-19T03:45:52.323Z,10.10
2022-12-19T03:48:26.679Z,10.07
2022-12-19T03:51:04.648Z,10.27
2022-12-19T03:53:46.930Z,10.67
2022-12-19T03:56:23.986Z,10.20
2022-12-19T03:58:57.709Z,9.63
2022-12-19T04:01:28.763Z,9.37
2022-12-19T04:04:00.270Z,10.63
2022-12-19T04:06:31.229Z,9.83
2022-12-19T04:09:01.072Z,10.53
2022-12-19T04:11:36.111Z,10.57
2022-12-19T04:14:08.898Z,10.30
2022-12-19T04:16:45.132Z,9.50
2022-12-19T04:19:20.548Z,9.60
2022-12-19T04:21:54.126Z,8.83
2022-12-19T04:24:27.344Z,9.83
2022-12-19T04:26:58.477Z,10.63
2022-12-19T04:29:29.658Z,10.77
2022-12-19T04:31:58.032Z,10.03
2022-12-19T04:34:27.542Z,9.83
2022-12-19T04:36:58.673Z,10.63
2022-12-19T04:39:26.936Z,9.40
2022-12-19T04:41:55.153Z,9.70
2022-12-19T04:44:23.561Z,9.40
2022-12-19T04:46:51.771Z,10.00
2022-12-19T04:49:20.218Z,9.03
2022-12-19T04:51:49.989Z,9.43
2022-12-19T04:54:18.254Z,9.87
2022-12-19T04:56:46.458Z,9.27
2022-12-19T04:59:14.991Z,8.57
2022-12-19T05:01:43.302Z,8.17
2022-12-19T05:04:11.648Z,8.17
2022-12-19T05:06:39.937Z,8.97
2022-12-19T05:09:11.682Z,8.73
2022-12-19T05:11:40.184Z,8.20
2022-12-19T05:14:08.583Z,8.27
2022-12-19T05:16:36.890Z,9.43
2022-12-19T05:19:05.216Z,8.83
2022-12-19T05:21:33.533Z,8.90
2022-12-19T05:24:01.794Z,9.53
2022-12-19T05:26:31.453Z,9.10
2022-12-19T05:28:59.622Z,9.73
2022-12-19T05:31:27.880Z,9.07
2022-12-19T05:33:56.293Z,8.70
2022-12-19T05:36:29.084Z,8.03
2022-12-19T05:39:00.515Z,8.27
2022-12-19T05:41:28.676Z,7.87
2022-12-19T05:43:58.577Z,8.97
2022-12-19T05:46:27.415Z,7.77
2022-12-19T05:48:57.317Z,9.20
2022-12-19T05:51:26.192Z,8.67
2022-12-19T05:53:54.427Z,7.97
2022-12-19T05:56:23.898Z,8.30
2022-12-19T05:58:52.170Z,8.50
2022-12-19T06:01:23.578Z,8.47
2022-12-19T06:03:52.285Z,7.73
2022-12-19T06:06:22.156Z,7.70
2022-12-19T06:08:54.304Z,8.10
2022-12-19T06:11:22.847Z,7.90
2022-12-19T06:13:51.166Z,7.37
2022-12-19T06:16:22.783Z,8.03
2022-12-19T06:18:51.073Z,7.63
2022-12-19T06:21:20.910Z,7.57
2022-12-19T06:23:49.675Z,7.80
2022-12-19T06:26:20.395Z,7.53
2022-12-19T06:28:48.920Z,7.63
2022-12-19T06:31:17.961Z,8.03
2022-12-19T06:33:47.566Z,8.10
2022-12-19T06:36:22.431Z,8.30
2022-12-19T06:38:51.608Z,8.53
2022-12-19T06:41:37.920Z,7.80
2022-12-19T06:44:08.020Z,8.83
2022-12-19T06:46:37.892Z,7.97
2022-12-19T06:49:07.902Z,7.40
2022-12-19T06:51:36.468Z,7.77
2022-12-19T06:54:04.872Z,8.37
2022-12-19T06:56:36.750Z,7.00
2022-12-19T06:59:05.304Z,8.37
2022-12-19T07:01:48.246Z,6.80
2022-12-19T07:04:21.433Z,7.80
2022-12-19T07:06:49.806Z,6.70
2022-12-19T07:09:18.326Z,7.57
2022-12-19T07:11:46.587Z,8.23
2022-12-19T07:14:15.068Z,8.10
2022-12-19T07:16:43.603Z,7.73
2022-12-19T07:19:12.195Z,7.43
2022-12-19T07:21:42.234Z,8.30
2022-12-19T07:24:11.261Z,8.00
2022-12-19T07:26:39.879Z,7.80
2022-12-19T07:29:08.370Z,7.00
2022-12-19T07:31:36.868Z,7.57
2022-12-19T07:34:05.356Z,8.10
2022-12-19T07:36:33.635Z,8.23
2022-12-19T07:39:03.977Z,7.70
2022-12-19T07:41:32.347Z,7.60
2022-12-19T07:44:01.399Z,7.10
2022-12-19T07:46:30.794Z,7.33
2022-12-19T07:48:58.987Z,7.17
2022-12-19T07:51:28.082Z,7.43
2022-12-19T07:53:56.287Z,7.03
2022-12-19T07:56:25.893Z,6.30
2022-12-19T07:58:54.507Z,7.40
2022-12-19T08:01:22.861Z,6.63
2022-12-19T08:03:51.213Z,6.93
2022-12-19T08:06:22.002Z,6.77
2022-12-19T08:08:50.238Z,5.70
2022-12-19T08:11:22.365Z,6.40
2022-12-19T08:13:52.049Z,6.77
2022-12-19T08:16:21.316Z,6.50
2022-12-19T08:18:49.730Z,7.60
2022-12-19T08:21:18.341Z,7.70
2022-12-19T08:23:46.987Z,6.40
2022-12-19T08:26:17.642Z,6.33
2022-12-19T08:28:48.097Z,6.40
2022-12-19T08:31:19.479Z,6.63
2022-12-19T08:33:48.436Z,5.53
2022-12-19T08:36:18.989Z,6.13
2022-12-19T08:38:48.290Z,6.03
2022-12-19T08:41:17.493Z,5.97
2022-12-19T08:43:50.945Z,5.63
2022-12-19T08:46:21.427Z,5.80
2022-12-19T08:48:49.718Z,5.37
2022-12-19T08:51:18.637Z,5.47
2022-12-19T08:53:47.799Z,5.80
2022-12-19T08:56:18.557Z,5.40
2022-12-19T08:58:47.118Z,5.97
2022-12-19T09:01:19.245Z,4.87
2022-12-19T09:04:26.798Z,5.23
2022-12-19T09:06:37.945Z,6.07
2022-12-19T09:09:06.815Z,5.17
2022-12-19T09:11:36.556Z,4.80
2022-12-19T09:14:21.034Z,4.63
2022-12-19T09:16:49.928Z,4.87
2022-12-19T09:19:19.591Z,5.40
2022-12-19T09:21:47.845Z,5.47
2022-12-19T09:24:16.056Z,5.33
2022-12-19T09:26:45.685Z,5.00
2022-12-19T09:29:20.411Z,5.80
2022-12-19T09:31:55.590Z,5.10
2022-12-19T09:34:33.507Z,5.10
2022-12-19T09:37:08.621Z,5.10
2022-12-19T09:39:37.832Z,5.10
2022-12-19T09:42:48.948Z,4.97
2022-12-19T09:45:40.399Z,4.77
2022-12-19T09:48:24.431Z,4.93
2022-12-19T09:51:10.332Z,4.83
2022-12-19T09:53:56.425Z,4.30
2022-12-19T09:56:29.889Z,4.70
2022-12-19T09:59:06.017Z,4.87
2022-12-19T10:01:46.111Z,4.80
2022-12-19T10:04:18.481Z,4.53
2022-12-19T10:07:18.164Z,5.23
2022-12-19T10:10:55.526Z,4.93
2022-12-19T10:12:50.959Z,5.47
2022-12-19T10:15:27.279Z,5.00
2022-12-19T10:18:11.993Z,4.77
2022-12-19T10:20:46.166Z,6.27
2022-12-19T10:23:32.681Z,4.90
2022-12-19T10:26:05.989Z,5.30
2022-12-19T10:28:47.903Z,4.83
2022-12-19T10:31:22.748Z,5.53
2022-12-19T10:33:57.408Z,5.33
2022-12-19T10:36:48.558Z,5.87
2022-12-19T10:39:27.709Z,5.73
2022-12-19T10:42:00.548Z,5.30
2022-12-19T10:44:32.482Z,6.37
2022-12-19T10:47:00.801Z,5.67
2022-12-19T10:49:32.697Z,5.37
2022-12-19T10:52:03.033Z,4.67
2022-12-19T10:54:44.029Z,5.20
2022-12-19T10:57:25.673Z,5.03
2022-12-19T10:59:58.844Z,4.73
2022-12-19T11:02:42.590Z,5.30
2022-12-19T11:05:26.472Z,4.33
2022-12-19T11:08:03.098Z,4.60
2022-12-19T11:12:01.079Z,4.70
2022-12-19T11:21:31.113Z,5.30
2022-12-19T11:22:11.709Z,4.90
2022-12-19T11:29:16.069Z,4.80
2022-12-19T11:29:35.301Z,5.20
2022-12-19T11:29:38.938Z,4.40
2022-12-19T11:30:06.373Z,5.00
2022-12-19T11:34:06.728Z,4.00
2022-12-19T11:36:40.099Z,4.20
2022-12-19T11:39:17.752Z,4.03
2022-12-19T11:41:51.022Z,3.93
2022-12-19T11:44:29.170Z,3.50
2022-12-19T11:47:04.847Z,4.00
2022-12-19T11:49:38.471Z,3.70
2022-12-19T11:52:36.839Z,3.70
2022-12-19T11:55:07.364Z,4.57
2022-12-19T11:57:43.207Z,3.57
2022-12-19T12:00:17.977Z,3.83
2022-12-19T12:03:04.005Z,3.00
2022-12-19T12:05:45.880Z,3.47
2022-12-19T12:10:14.487Z,3.10
2022-12-19T12:17:03.709Z,3.00
2022-12-19T12:22:52.534Z,2.73
2022-12-19T12:31:16.501Z,2.63
2022-12-19T12:31:19.171Z,3.40
2022-12-19T12:31:26.820Z,3.60
2022-12-19T12:31:46.439Z,3.30
2022-12-19T12:31:54.268Z,3.67
2022-12-19T12:35:54.319Z,3.40
2022-12-19T12:38:48.693Z,3.20
2022-12-19T12:41:47.216Z,3.23
2022-12-19T12:44:32.748Z,2.97
2022-12-19T12:47:07.939Z,3.90
2022-12-19T12:49:40.171Z,3.47
2022-12-19T12:52:14.973Z,2.83
2022-12-19T12:54:47.430Z,2.90
2022-12-19T12:57:22.015Z,2.50
2022-12-19T13:00:24.729Z,3.17
2022-12-19T13:02:57.588Z,3.50
2022-12-19T13:05:38.547Z,2.90
2022-12-19T13:08:32.790Z,2.80
2022-12-19T13:11:03.243Z,3.13
2022-12-19T13:13:53.252Z,2.73
2022-12-19T13:16:51.414Z,2.87
2022-12-19T13:19:27.933Z,2.60
2022-12-19T13:22:21.191Z,2.10
2022-12-19T13:24:51.934Z,2.50
2022-12-19T13:27:50.509Z,2.50
2022-12-19T13:30:20.740Z,2.77
2022-12-19T13:33:10.601Z,2.40
2022-12-19T13:36:58.430Z,2.30
2022-12-19T13:39:58.100Z,2.40
2022-12-19T13:41:58.470Z,2.37
2022-12-19T13:44:27.829Z,2.90
2022-12-19T13:46:57.063Z,2.60
2022-12-19T13:49:33.313Z,2.90
2022-12-19T13:52:04.575Z,2.87
2022-12-19T13:54:38.043Z,2.60
2022-12-19T13:57:22.604Z,2.40
2022-12-19T13:59:59.328Z,2.87
2022-12-19T14:02:34.894Z,2.30
2022-12-19T14:05:31.905Z,2.60
2022-12-19T14:08:17.930Z,2.50
2022-12-19T14:11:41.486Z,2.37
2022-12-19T14:14:10.734Z,2.30
2022-12-19T14:16:44.975Z,2.40
2022-12-19T14:19:20.232Z,2.60
2022-12-19T14:22:11.804Z,2.77
2022-12-19T14:24:36.782Z,2.43
2022-12-19T14:28:20.528Z,3.07
2022-12-19T14:30:27.277Z,2.60
2022-12-19T14:33:45.139Z,2.87
2022-12-19T14:36:10.132Z,2.50
2022-12-19T14:39:26.726Z,2.37
2022-12-19T14:42:01.461Z,2.70
2022-12-19T14:51:42.367Z,2.77
2022-12-19T14:52:27.892Z,2.60
2022-12-19T14:54:28.280Z,2.60
2022-12-19T14:54:55.126Z,2.73
2022-12-19T14:59:04.200Z,3.00
2022-12-19T15:01:36.830Z,3.37
2022-12-19T15:04:51.085Z,3.07
2022-12-19T15:07:11.929Z,2.93
2022-12-19T15:11:02.549Z,2.37
2022-12-19T15:14:47.504Z,2.30
2022-12-19T15:15:59.420Z,2.33
2022-12-19T15:18:29.809Z,2.57
2022-12-19T15:21:01.641Z,2.70
2022-12-19T15:23:30.752Z,2.30
2022-12-19T15:26:05.594Z,2.27
2022-12-19T15:28:40.064Z,2.20
2022-12-19T15:31:18.252Z,2.10
2022-12-19T15:34:14.899Z,2.30
2022-12-19T15:36:36.179Z,2.40
2022-12-19T15:39:05.546Z,2.50
2022-12-19T15:41:33.784Z,2.83
2022-12-19T15:44:09.627Z,2.63
2022-12-19T15:46:41.355Z,3.10
2022-12-19T15:49:19.789Z,2.60
2022-12-19T15:51:50.588Z,2.53
2022-12-19T15:54:47.856Z,2.57
2022-12-19T15:57:15.474Z,2.67
2022-12-19T15:59:46.196Z,2.90
2022-12-19T16:02:18.205Z,2.70
2022-12-19T16:04:48.306Z,2.70
2022-12-19T16:07:20.258Z,2.77
2022-12-19T16:09:48.957Z,3.43
2022-12-19T16:12:19.320Z,3.07
2022-12-19T16:14:50.341Z,2.53
2022-12-19T16:17:22.824Z,2.90
2022-12-19T16:19:51.875Z,3.10
2022-12-19T16:22:23.771Z,2.93
2022-12-19T16:24:54.533Z,2.90
2022-12-19T16:27:25.465Z,2.77
2022-12-19T16:29:55.223Z,3.20
2022-12-19T16:32:25.681Z,3.17
2022-12-19T16:34:54.726Z,3.37
2022-12-19T16:37:31.771Z,3.37
2022-12-19T16:40:02.065Z,3.10
2022-12-19T16:42:31.344Z,3.30
2022-12-19T16:44:59.799Z,3.27
2022-12-19T16:47:28.310Z,3.77
2022-12-19T16:49:56.685Z,4.00
2022-12-19T16:52:26.516Z,3.63
2022-12-19T16:54:54.901Z,3.60
2022-12-19T16:57:23.773Z,4.43
2022-12-19T16:59:52.277Z,3.57
2022-12-19T17:02:42.346Z,3.60
2022-12-19T17:05:18.386Z,3.47
2022-12-19T17:07:48.564Z,3.03
2022-12-19T17:10:22.794Z,3.20
2022-12-19T17:12:54.910Z,3.33
2022-12-19T17:15:28.467Z,2.80
2022-12-19T17:17:59.309Z,3.33
2022-12-19T17:20:33.013Z,3.20
2022-12-19T17:23:02.725Z,3.10
2022-12-19T17:25:32.007Z,2.97
2022-12-19T17:28:00.318Z,3.27
2022-12-19T17:30:28.649Z,3.57
2022-12-19T17:32:57.490Z,3.20
2022-12-19T17:35:29.033Z,3.23
2022-12-19T17:37:58.687Z,3.77
2022-12-19T17:40:30.487Z,3.10
2022-12-19T17:42:59.759Z,3.63
2022-12-19T17:45:30.784Z,3.50
2022-12-19T17:48:03.355Z,3.13
2022-12-19T17:50:37.466Z,3.20
2022-12-19T17:53:07.193Z,3.33
2022-12-19T17:55:36.824Z,3.40
2022-12-19T17:58:06.249Z,3.30
2022-12-19T18:00:35.126Z,4.07
2022-12-19T18:03:11.107Z,3.50
2022-12-19T18:05:39.493Z,3.43
2022-12-19T18:08:20.566Z,3.50
2022-12-19T18:10:50.244Z,3.83
2022-12-19T18:13:18.581Z,3.50
2022-12-19T18:15:46.850Z,3.50
2022-12-19T18:18:16.712Z,3.63
2022-12-19T18:20:45.585Z,4.23
2022-12-19T18:23:21.606Z,4.40
2022-12-19T18:25:56.118Z,3.57
2022-12-19T18:28:27.673Z,3.47
2022-12-19T18:31:01.287Z,4.57
2022-12-19T18:33:40.495Z,3.57
2022-12-19T18:36:16.418Z,3.57
2022-12-19T18:38:44.737Z,3.73
2022-12-19T18:41:14.350Z,3.13
2022-12-19T18:43:42.655Z,4.13
2022-12-19T18:46:14.865Z,3.40
2022-12-19T18:48:45.120Z,3.50
2022-12-19T18:51:16.005Z,3.30
2022-12-19T18:53:47.545Z,3.60
2022-12-19T18:56:17.475Z,3.50
2022-12-19T18:58:45.740Z,3.40
2022-12-19T19:01:16.810Z,3.47
2022-12-19T19:03:53.533Z,3.60
2022-12-19T19:06:24.120Z,3.43
2022-12-19T19:08:52.703Z,3.60
2022-12-19T19:11:45.515Z,3.60
2022-12-19T19:14:14.514Z,3.53
2022-12-19T19:16:42.916Z,3.20
2022-12-19T19:19:15.930Z,3.20
2022-12-19T19:21:44.280Z,3.60
2022-12-19T19:24:15.664Z,3.90
2022-12-19T19:26:45.422Z,4.00
2022-12-19T19:29:15.068Z,3.43
2022-12-19T19:31:46.878Z,3.13
2022-12-19T19:34:19.615Z,3.60
2022-12-19T19:36:49.805Z,3.60
2022-12-19T19:39:19.946Z,3.60
2022-12-19T19:41:49.886Z,3.63
2022-12-19T19:44:18.445Z,3.63
2022-12-19T19:46:47.083Z,4.17
2022-12-19T19:49:15.602Z,3.90
2022-12-19T19:51:43.887Z,4.00
2022-12-19T19:54:12.365Z,3.60
2022-12-19T19:56:40.965Z,3.30
2022-12-19T19:59:10.795Z,3.40
2022-12-19T20:01:39.312Z,3.40
2022-12-19T20:04:08.684Z,3.87
2022-12-19T20:06:37.287Z,4.10
2022-12-19T20:09:08.066Z,3.90
2022-12-19T20:11:36.344Z,3.87
2022-12-19T20:14:04.638Z,4.10
2022-12-19T20:16:36.525Z,3.67
2022-12-19T20:19:04.955Z,3.30
2022-12-19T20:21:34.103Z,3.87
2022-12-19T20:24:02.633Z,4.10
2022-12-19T20:26:31.071Z,3.50
2022-12-19T20:28:59.379Z,3.73
2022-12-19T20:31:28.296Z,4.00
2022-12-19T20:33:58.057Z,3.50
2022-12-19T20:36:26.806Z,3.43
2022-12-19T20:38:55.127Z,4.00
2022-12-19T20:41:24.364Z,3.80
2022-12-19T20:43:53.490Z,3.03
2022-12-19T20:46:22.994Z,3.30
2022-12-19T20:48:52.075Z,3.60
2022-12-19T20:51:22.892Z,3.73
2022-12-19T20:53:54.644Z,4.03
2022-12-19T20:56:25.889Z,3.27
2022-12-19T20:58:54.290Z,2.67
2022-12-19T21:01:24.643Z,3.20
2022-12-19T21:03:53.482Z,3.50
2022-12-19T21:06:27.042Z,3.30
2022-12-19T21:08:56.173Z,3.47
2022-12-19T21:11:26.315Z,3.53
2022-12-19T21:13:55.002Z,3.57
2022-12-19T21:16:24.635Z,3.17
2022-12-19T21:18:53.036Z,3.60
2022-12-19T21:21:24.957Z,3.20
2022-12-19T21:23:53.844Z,3.53
2022-12-19T21:26:23.268Z,3.23
2022-12-19T21:28:51.723Z,2.80
2022-12-19T21:31:22.664Z,3.33
2022-12-19T21:33:51.589Z,3.20
2022-12-19T21:36:23.191Z,3.00
2022-12-19T21:38:54.676Z,2.57
2022-12-19T21:41:22.998Z,2.90
2022-12-19T21:43:53.682Z,2.80
2022-12-19T21:46:24.290Z,2.70
2022-12-19T21:48:55.551Z,2.80
2022-12-19T21:51:26.288Z,2.40
2022-12-19T21:53:57.106Z,2.77
2022-12-19T21:56:27.168Z,2.80
2022-12-19T21:58:57.484Z,3.80
2022-12-19T22:01:26.640Z,3.03
2022-12-19T22:03:59.724Z,2.73
2022-12-19T22:06:30.683Z,2.80
2022-12-19T22:09:00.686Z,2.87
2022-12-19T22:11:30.407Z,3.17
2022-12-19T22:14:00.179Z,3.20
2022-12-19T22:16:28.736Z,2.80
2022-12-19T22:18:57.003Z,3.00
2022-12-19T22:21:25.964Z,2.60
2022-12-19T22:23:57.045Z,2.87
2022-12-19T22:26:27.666Z,2.70
2022-12-19T22:28:57.572Z,2.87
2022-12-19T22:31:27.996Z,2.90
2022-12-19T22:33:58.779Z,3.00
2022-12-19T22:36:29.062Z,2.77
2022-12-19T22:38:58.552Z,2.73
2022-12-19T22:41:28.803Z,2.60
2022-12-19T22:43:57.486Z,2.60
2022-12-19T22:46:27.467Z,2.93
2022-12-19T22:48:57.825Z,2.33
2022-12-19T22:51:27.257Z,2.20
2022-12-19T22:53:56.097Z,2.43
2022-12-19T22:56:28.073Z,2.50
2022-12-19T22:58:59.366Z,2.20
2022-12-19T23:01:29.611Z,2.50
2022-12-19T23:04:00.101Z,2.53
2022-12-19T23:06:30.927Z,2.30
2022-12-19T23:08:59.332Z,2.37
2022-12-19T23:11:31.683Z,2.63
2022-12-19T23:14:01.416Z,2.40
2022-12-19T23:16:29.682Z,2.63
2022-12-19T23:18:57.861Z,2.30
2022-12-19T23:21:27.943Z,2.10
2022-12-19T23:23:57.420Z,2.73
2022-12-19T23:26:28.739Z,2.40
2022-12-19T23:29:00.226Z,3.07
2022-12-19T23:31:31.040Z,2.50
2022-12-19T23:34:00.109Z,2.50
2022-12-19T23:39:17.709Z,2.10
2022-12-19T23:41:47.314Z,2.47
2022-12-19T23:44:15.813Z,2.20
2022-12-19T23:46:44.110Z,2.30
2022-12-19T23:49:12.285Z,2.33
2022-12-19T23:51:40.543Z,2.43
2022-12-19T23:54:09.045Z,2.97
2022-12-19T23:56:37.475Z,2.40
2022-12-19T23:59:07.691Z,2.37
